Time;durP1;ratioP1;P1;durP2;ratioP2;P2;SDS_P1;SDS_P2;PMS_P1;PMS_P2;Temp;Humidity;BMP_temperature;BMP_pressure;BME280_temperature;BME280_humidity;BME280_pressure;Samples;Min_cycle;Max_cycle;Signal;HPM_P1;HPM_P2
2023/03/29 00:01:43;;;;;;;5.45;2.30;;;;;7.80;98777.00;;;;5013986;28;20105;-58
2023/03/29 00:04:12;;;;;;;3.05;1.92;;;;;7.80;98788.00;;;;5014283;28;20045;-58
2023/03/29 00:06:40;;;;;;;2.40;1.90;;;;;7.80;98785.00;;;;5014160;28;20045;-59
2023/03/29 00:09:08;;;;;;;2.40;2.00;;;;;7.80;98787.00;;;;5013154;28;20049;-60
2023/03/29 00:11:35;;;;;;;2.92;2.20;;;;;7.80;98791.00;;;;5014005;28;20072;-60
2023/03/29 00:14:02;;;;;;;2.83;2.20;;;;;7.80;98780.00;;;;5014507;28;20376;-61
2023/03/29 00:16:28;;;;;;;3.33;2.50;;;;;7.80;98782.00;;;;5014135;28;20395;-59
2023/03/29 00:18:55;;;;;;;3.45;2.17;;;;;7.70;98778.00;;;;5012271;28;20050;-61
2023/03/29 00:21:21;;;;;;;2.70;1.98;;;;;7.80;98778.00;;;;5013869;28;20423;-59
2023/03/29 00:23:48;;;;;;;3.45;2.17;;;;;7.80;98767.00;;;;5013870;28;20050;-60
2023/03/29 00:26:15;;;;;;;3.35;2.00;;;;;7.80;98759.00;;;;5013871;28;20388;-61
2023/03/29 00:28:41;;;;;;;3.22;2.22;;;;;7.90;98753.00;;;;5013096;28;20404;-61
2023/03/29 00:31:14;;;;;;;3.95;2.20;;;;;7.80;98748.00;;;;5013737;28;20057;-60
2023/03/29 00:33:41;;;;;;;4.55;1.77;;;;;7.80;98755.00;;;;5013823;28;20518;-60
2023/03/29 00:36:09;;;;;;;3.55;2.40;;;;;7.80;98754.00;;;;5012505;28;20050;-61
2023/03/29 00:38:37;;;;;;;2.67;1.90;;;;;7.90;98754.00;;;;5012128;28;20530;-58
2023/03/29 00:41:05;;;;;;;4.50;1.98;;;;;8.00;98756.00;;;;5014248;28;20038;-58
2023/03/29 00:44:30;;;;;;;2.20;1.83;;;;;8.10;98745.00;;;;5013167;28;20052;-60
2023/03/29 00:46:56;;;;;;;4.05;2.40;;;;;8.10;98744.00;;;;4937824;29;20083;-57
2023/03/29 00:49:23;;;;;;;3.28;2.03;;;;;8.10;98734.00;;;;4952847;29;20058;-59
2023/03/29 00:51:49;;;;;;;2.85;2.08;;;;;8.00;98740.00;;;;4990680;28;20057;-60
2023/03/29 00:54:18;;;;;;;2.63;2.10;;;;;8.00;98743.00;;;;5013634;28;20117;-58
2023/03/29 00:56:48;;;;;;;5.47;2.50;;;;;8.00;98740.00;;;;5013304;28;20045;-59
2023/03/29 00:59:19;;;;;;;2.20;2.00;;;;;7.90;98728.00;;;;5012494;28;20041;-59
2023/03/29 01:01:57;;;;;;;2.13;1.92;;;;;8.00;98730.00;;;;5013241;28;20461;-61
2023/03/29 01:04:35;;;;;;;3.25;1.95;;;;;8.00;98730.00;;;;5012354;28;20557;-59
2023/03/29 01:07:12;;;;;;;4.80;2.10;;;;;8.00;98725.00;;;;5013596;28;20038;-59
2023/03/29 01:09:42;;;;;;;3.85;1.92;;;;;7.90;98715.00;;;;5011741;28;20145;-60
2023/03/29 01:12:15;;;;;;;2.38;2.00;;;;;7.90;98707.00;;;;5012293;28;20584;-61
2023/03/29 01:14:55;;;;;;;1.92;1.50;;;;;7.90;98710.00;;;;5011694;28;20100;-60
2023/03/29 01:17:24;;;;;;;3.00;1.85;;;;;7.80;98705.00;;;;5011824;28;20049;-60
2023/03/29 01:20:01;;;;;;;4.15;1.90;;;;;7.80;98703.00;;;;5010540;28;20056;-59
2023/03/29 01:22:57;;;;;;;2.95;1.88;;;;;7.80;98701.00;;;;5011480;28;20053;-59
2023/03/29 01:25:41;;;;;;;4.25;2.38;;;;;7.90;98702.00;;;;5012830;28;20046;-60
2023/03/29 01:28:11;;;;;;;2.42;1.92;;;;;7.90;98702.00;;;;5011766;28;20061;-62
2023/03/29 01:30:48;;;;;;;3.75;1.80;;;;;7.70;98696.00;;;;5011313;28;20051;-59
2023/03/29 01:33:22;;;;;;;3.22;1.80;;;;;7.60;98695.00;;;;5012786;28;20052;-59
2023/03/29 01:36:07;;;;;;;;;;;;;7.60;98701.00;;;;5013507;28;20056;-60
2023/03/29 01:39:04;;;;;;;5.95;2.53;;;;;7.70;98698.00;;;;5012290;28;19921;-62
2023/03/29 01:41:39;;;;;;;3.63;2.40;;;;;7.60;98699.00;;;;5015666;28;20113;-61
2023/03/29 01:44:15;;;;;;;4.47;1.90;;;;;7.40;98695.00;;;;5012512;28;20050;-61
2023/03/29 01:46:46;;;;;;;3.70;1.83;;;;;7.30;98701.00;;;;5011383;28;20046;-61
2023/03/29 01:49:33;;;;;;;3.22;1.90;;;;;7.30;98694.00;;;;5027030;28;20046;-61
2023/03/29 01:52:12;;;;;;;2.03;1.70;;;;;7.30;98685.00;;;;5011146;28;20038;-59
2023/03/29 01:55:13;;;;;;;3.17;2.20;;;;;7.20;98683.00;;;;5012849;28;20391;-60
2023/03/29 01:57:42;;;;;;;2.20;1.73;;;;;7.20;98683.00;;;;5012489;28;20050;-59
2023/03/29 02:00:15;;;;;;;3.28;1.70;;;;;7.10;98669.00;;;;5010386;28;20050;-58
2023/03/29 02:02:44;;;;;;;2.45;1.80;;;;;7.20;98679.00;;;;5012025;28;20049;-59
2023/03/29 02:05:13;;;;;;;2.13;1.80;;;;;7.10;98682.00;;;;5012162;28;20046;-61
2023/03/29 02:07:43;;;;;;;2.38;1.95;;;;;7.10;98674.00;;;;5012228;28;20053;-58
2023/03/29 02:10:11;;;;;;;2.33;1.77;;;;;7.10;98675.00;;;;5010233;28;20388;-59
2023/03/29 02:12:37;;;;;;;4.03;2.15;;;;;7.00;98668.00;;;;5010786;28;20073;-59
2023/03/29 02:15:10;;;;;;;2.60;2.05;;;;;7.10;98675.00;;;;5010794;28;20046;-59
2023/03/29 02:17:37;;;;;;;4.43;2.10;;;;;7.10;98660.00;;;;5012033;28;20037;-60
2023/03/29 02:20:13;;;;;;;2.83;1.90;;;;;6.90;98664.00;;;;5010079;28;20046;-58
2023/03/29 02:22:45;;;;;;;3.70;2.15;;;;;6.90;98665.00;;;;5012239;28;20132;-60
2023/03/29 02:25:14;;;;;;;13.20;7.55;;;;;6.90;98656.00;;;;5010975;28;20141;-60
2023/03/29 02:27:41;;;;;;;4.57;3.58;;;;;7.00;98667.00;;;;5010751;28;20061;-59
2023/03/29 02:30:10;;;;;;;9.02;4.82;;;;;7.00;98649.00;;;;5011356;28;20073;-61
2023/03/29 02:32:47;;;;;;;4.35;2.92;;;;;7.00;98652.00;;;;5014228;28;20046;-59
2023/03/29 02:35:44;;;;;;;4.57;2.63;;;;;7.10;98650.00;;;;5014733;28;20073;-60
2023/03/29 02:38:13;;;;;;;3.97;2.40;;;;;7.00;98657.00;;;;5022495;28;20057;-59
2023/03/29 02:40:41;;;;;;;3.08;2.63;;;;;7.00;98653.00;;;;5013514;28;20041;-61
2023/03/29 02:43:09;;;;;;;2.97;2.65;;;;;6.90;98656.00;;;;5030658;28;20045;-61
2023/03/29 02:45:36;;;;;;;4.20;2.40;;;;;6.90;98647.00;;;;5015445;28;20411;-61
2023/03/29 02:48:06;;;;;;;5.00;2.60;;;;;6.80;98644.00;;;;5015245;28;20054;-60
2023/03/29 02:50:39;;;;;;;3.05;2.22;;;;;6.90;98649.00;;;;5014891;28;20046;-59
2023/03/29 02:53:11;;;;;;;2.50;2.30;;;;;6.90;98658.00;;;;5014061;28;20470;-61
2023/03/29 02:55:40;;;;;;;;;;;;;6.90;98662.00;;;;5014598;28;20046;-60
2023/03/29 02:58:07;;;;;;;4.97;2.20;;;;;6.90;98662.00;;;;5015386;28;19956;-59
2023/03/29 03:00:40;;;;;;;3.08;2.28;;;;;6.80;98657.00;;;;5013410;28;20069;-59
2023/03/29 03:03:07;;;;;;;2.63;2.30;;;;;6.60;98644.00;;;;5013691;28;20050;-60
2023/03/29 03:05:34;;;;;;;3.33;2.13;;;;;6.60;98642.00;;;;5013997;28;20081;-58
2023/03/29 03:08:03;;;;;;;3.35;2.15;;;;;6.60;98643.00;;;;5013865;28;20128;-63
2023/03/29 03:10:31;;;;;;;2.45;2.00;;;;;6.50;98641.00;;;;5029883;28;20042;-62
2023/03/29 03:12:58;;;;;;;4.65;2.50;;;;;6.40;98644.00;;;;5013918;28;20565;-61
2023/03/29 03:15:26;;;;;;;3.08;2.30;;;;;6.30;98631.00;;;;5013651;28;20045;-61
2023/03/29 03:17:53;;;;;;;4.30;2.58;;;;;6.30;98630.00;;;;5013631;28;20414;-62
2023/03/29 03:20:22;;;;;;;5.53;2.45;;;;;6.40;98627.00;;;;5014136;28;20045;-59
2023/03/29 03:22:49;;;;;;;4.85;2.55;;;;;6.40;98637.00;;;;5014821;28;20038;-62
2023/03/29 03:25:19;;;;;;;3.20;2.30;;;;;6.20;98632.00;;;;5013495;28;20518;-61
2023/03/29 03:27:48;;;;;;;4.40;2.88;;;;;6.10;98636.00;;;;5029937;28;20045;-62
2023/03/29 03:30:17;;;;;;;3.45;2.42;;;;;6.10;98628.00;;;;5013038;28;20124;-62
2023/03/29 03:33:02;;;;;;;3.80;2.42;;;;;6.00;98631.00;;;;5014022;28;20056;-60
2023/03/29 03:36:05;;;;;;;4.03;2.22;;;;;6.00;98635.00;;;;4984254;28;20053;-60
2023/03/29 03:38:35;;;;;;;4.05;2.22;;;;;6.10;98638.00;;;;5012844;28;20076;-58
2023/03/29 03:41:05;;;;;;;4.78;2.35;;;;;6.10;98641.00;;;;5029659;28;20046;-59
2023/03/29 03:43:33;;;;;;;4.78;2.45;;;;;6.00;98631.00;;;;5012402;28;20053;-59
2023/03/29 03:46:01;;;;;;;2.88;2.28;;;;;6.10;98624.00;;;;4997126;28;20068;-60
2023/03/29 03:48:28;;;;;;;2.40;2.05;;;;;6.10;98626.00;;;;5012596;28;20064;-61
2023/03/29 03:51:08;;;;;;;2.92;2.60;;;;;6.20;98618.00;;;;5012981;28;20048;-60
2023/03/29 03:53:35;;;;;;;4.90;2.25;;;;;6.20;98624.00;;;;5014374;28;20499;-60
2023/03/29 03:56:30;;;;;;;3.60;2.65;;;;;6.20;98623.00;;;;5014205;28;20042;-61
2023/03/29 03:59:03;;;;;;;5.22;2.83;;;;;6.20;98628.00;;;;5013349;28;20105;-60
2023/03/29 04:01:53;;;;;;;8.18;4.07;;;;;6.20;98625.00;;;;5013839;28;20129;-61
2023/03/29 04:04:22;;;;;;;5.35;2.65;;;;;6.10;98625.00;;;;5013050;28;20069;-62
2023/03/29 04:07:01;;;;;;;4.70;2.55;;;;;6.10;98620.00;;;;5012837;28;20073;-61
2023/03/29 04:09:59;;;;;;;5.07;2.63;;;;;5.90;98622.00;;;;5011981;28;20060;-62
2023/03/29 04:12:38;;;;;;;4.22;3.08;;;;;5.80;98620.00;;;;5012798;28;20077;-61
2023/03/29 04:15:07;;;;;;;4.65;3.10;;;;;5.80;98615.00;;;;5012750;28;20104;-60
2023/03/29 04:17:34;;;;;;;4.85;2.33;;;;;5.70;98619.00;;;;5012574;28;20694;-60
2023/03/29 04:20:16;;;;;;;6.20;2.30;;;;;5.70;98626.00;;;;5013071;28;20108;-61
2023/03/29 04:22:43;;;;;;;2.72;2.40;;;;;5.60;98630.00;;;;5013922;28;20558;-60
2023/03/29 04:25:10;;;;;;;4.35;2.33;;;;;5.50;98625.00;;;;5012508;28;20050;-61
2023/03/29 04:27:46;;;;;;;2.47;2.05;;;;;5.30;98629.00;;;;5013719;28;20050;-60
2023/03/29 04:30:33;;;;;;;4.22;2.58;;;;;5.30;98630.00;;;;5011668;28;20100;-59
2023/03/29 04:33:18;;;;;;;5.85;2.75;;;;;5.20;98629.00;;;;5013899;28;20419;-61
2023/03/29 04:35:51;;;;;;;4.15;2.70;;;;;5.10;98630.00;;;;5012407;28;20046;-61
2023/03/29 04:38:22;;;;;;;4.82;2.72;;;;;5.10;98627.00;;;;5013188;28;20096;-61
2023/03/29 04:40:50;;;;;;;6.00;2.95;;;;;5.20;98623.00;;;;5011959;28;20503;-61
2023/03/29 04:43:25;;;;;;;4.15;3.03;;;;;5.20;98614.00;;;;5012113;28;20046;-61
2023/03/29 04:46:06;;;;;;;5.10;3.20;;;;;5.30;98623.00;;;;5012119;28;20050;-62
2023/03/29 04:48:57;;;;;;;4.20;2.85;;;;;5.20;98619.00;;;;5011684;28;20054;-60
2023/03/29 04:51:32;;;;;;;2.88;2.50;;;;;5.20;98625.00;;;;5012069;28;20046;-62
2023/03/29 04:54:00;;;;;;;3.65;2.70;;;;;5.10;98625.00;;;;5011934;28;20057;-61
2023/03/29 04:56:26;;;;;;;3.85;3.08;;;;;5.10;98623.00;;;;5011790;28;20049;-61
2023/03/29 04:59:11;;;;;;;5.80;2.95;;;;;5.20;98628.00;;;;5012620;28;20056;-61
2023/03/29 05:01:38;;;;;;;5.50;4.10;;;;;5.20;98617.00;;;;5011367;28;20100;-61
2023/03/29 05:04:04;;;;;;;4.95;2.80;;;;;5.20;98623.00;;;;5012107;28;20132;-61
2023/03/29 05:06:37;;;;;;;3.85;3.13;;;;;5.00;98623.00;;;;5011757;28;20050;-61
2023/03/29 05:09:07;;;;;;;5.13;3.38;;;;;5.00;98627.00;;;;5011096;28;20056;-61
2023/03/29 05:11:45;;;;;;;5.55;3.33;;;;;5.10;98625.00;;;;5011561;28;20092;-61
2023/03/29 05:14:13;;;;;;;4.45;2.83;;;;;5.20;98612.00;;;;5011585;28;20053;-61
2023/03/29 05:16:41;;;;;;;4.85;2.70;;;;;5.20;98620.00;;;;5011546;28;20529;-61
2023/03/29 05:19:10;;;;;;;3.95;2.80;;;;;5.30;98620.00;;;;5012463;28;20052;-61
2023/03/29 05:21:40;;;;;;;3.80;2.63;;;;;5.30;98624.00;;;;5011479;28;20042;-61
2023/03/29 05:24:13;;;;;;;2.38;2.17;;;;;5.30;98630.00;;;;5011382;28;20100;-62
2023/03/29 05:26:53;;;;;;;2.40;2.20;;;;;5.20;98630.00;;;;5011751;28;20488;-62
2023/03/29 05:29:20;;;;;;;3.17;2.33;;;;;5.10;98622.00;;;;5013507;28;20475;-62
2023/03/29 05:31:52;;;;;;;5.53;4.15;;;;;5.10;98617.00;;;;5014080;28;20514;-61
2023/03/29 05:34:19;;;;;;;6.43;3.55;;;;;5.10;98621.00;;;;5015039;28;20057;-62
2023/03/29 05:36:50;;;;;;;6.97;5.15;;;;;5.20;98622.00;;;;5015929;28;20053;-60
2023/03/29 05:39:18;;;;;;;7.05;4.07;;;;;5.20;98628.00;;;;5028751;28;20140;-62
2023/03/29 05:41:45;;;;;;;6.13;4.40;;;;;5.30;98626.00;;;;5012433;28;20041;-62
2023/03/29 05:44:25;;;;;;;6.18;2.70;;;;;5.20;98618.00;;;;5014327;28;20116;-61
2023/03/29 05:46:58;;;;;;;5.03;2.67;;;;;5.20;98629.00;;;;5012630;28;20065;-60
2023/03/29 05:49:25;;;;;;;4.65;2.75;;;;;5.30;98630.00;;;;5012012;28;20503;-61
2023/03/29 05:52:05;;;;;;;4.50;2.78;;;;;5.40;98624.00;;;;5013173;28;20050;-62
2023/03/29 05:54:33;;;;;;;3.15;2.53;;;;;5.40;98631.00;;;;5013029;28;20096;-61
2023/03/29 05:57:01;;;;;;;3.58;2.47;;;;;5.50;98631.00;;;;5013129;28;20132;-60
2023/03/29 05:59:28;;;;;;;5.07;2.83;;;;;5.60;98624.00;;;;5013441;28;20519;-61
2023/03/29 06:01:55;;;;;;;4.47;3.00;;;;;5.70;98632.00;;;;5012343;28;20042;-59
2023/03/29 06:04:23;;;;;;;4.63;3.42;;;;;5.80;98640.00;;;;5011016;28;20070;-58
2023/03/29 06:07:11;;;;;;;3.88;2.92;;;;;5.80;98638.00;;;;5013397;28;20056;-57
2023/03/29 06:09:40;;;;;;;8.68;6.38;;;;;5.90;98634.00;;;;5014491;28;20050;-57
2023/03/29 06:12:07;;;;;;;4.43;3.53;;;;;6.00;98628.00;;;;5014799;28;20134;-58
2023/03/29 06:15:01;;;;;;;7.78;5.07;;;;;6.10;98629.00;;;;5014942;28;20141;-57
2023/03/29 06:17:35;;;;;;;6.32;3.00;;;;;6.20;98629.00;;;;5031237;28;20079;-57
2023/03/29 06:20:07;;;;;;;3.90;3.25;;;;;6.30;98635.00;;;;5015622;28;20049;-57
2023/03/29 06:22:34;;;;;;;5.15;3.33;;;;;6.40;98637.00;;;;5014808;28;20104;-58
2023/03/29 06:25:01;;;;;;;4.80;2.90;;;;;6.50;98643.00;;;;5015762;28;20486;-57
2023/03/29 06:27:31;;;;;;;5.43;3.63;;;;;6.50;98641.00;;;;5014612;28;20141;-58
2023/03/29 06:29:59;;;;;;;6.03;3.10;;;;;6.40;98637.00;;;;5014010;28;20522;-56
2023/03/29 06:32:27;;;;;;;3.38;2.90;;;;;6.50;98651.00;;;;5014452;28;20069;-59
2023/03/29 06:35:01;;;;;;;5.60;3.53;;;;;6.60;98653.00;;;;5014560;28;20103;-56
2023/03/29 06:37:31;;;;;;;4.82;3.25;;;;;6.80;98645.00;;;;5014374;28;20045;-62
2023/03/29 06:40:12;;;;;;;6.22;3.60;;;;;6.80;98649.00;;;;5013760;28;20048;-57
2023/03/29 06:42:43;;;;;;;5.75;3.35;;;;;6.80;98649.00;;;;5014373;28;20069;-58
2023/03/29 06:45:38;;;;;;;4.60;3.40;;;;;7.00;98654.00;;;;5014358;28;20061;-58
2023/03/29 06:48:11;;;;;;;6.28;3.78;;;;;7.10;98654.00;;;;5014286;28;20045;-59
2023/03/29 06:50:39;;;;;;;8.23;3.63;;;;;7.10;98646.00;;;;5015185;28;20045;-57
2023/03/29 06:53:09;;;;;;;7.70;4.35;;;;;7.30;98650.00;;;;5014209;28;20050;-62
2023/03/29 06:55:37;;;;;;;7.28;4.47;;;;;7.40;98657.00;;;;5014095;28;20045;-58
2023/03/29 06:58:24;;;;;;;7.40;4.03;;;;;7.60;98668.00;;;;5014937;28;20052;-58
2023/03/29 07:00:52;;;;;;;5.68;4.82;;;;;7.70;98663.00;;;;5013897;28;20113;-59
2023/03/29 07:03:28;;;;;;;9.93;4.70;;;;;7.80;98674.00;;;;5013982;28;20045;-59
2023/03/29 07:06:02;;;;;;;5.53;4.40;;;;;8.00;98666.00;;;;5030355;28;20510;-58
2023/03/29 07:08:31;;;;;;;7.45;4.40;;;;;8.00;98669.00;;;;5013463;28;20045;-62
2023/03/29 07:11:01;;;;;;;6.60;4.57;;;;;8.10;98668.00;;;;5014870;28;20048;-58
2023/03/29 07:13:54;;;;;;;7.53;4.30;;;;;8.20;98672.00;;;;5013773;28;20050;-58
2023/03/29 07:16:21;;;;;;;5.57;3.58;;;;;8.40;98667.00;;;;5013789;28;20133;-61
2023/03/29 07:18:51;;;;;;;8.88;4.57;;;;;8.60;98669.00;;;;5013199;28;20119;-58
2023/03/29 07:21:38;;;;;;;9.10;3.90;;;;;8.80;98672.00;;;;4974478;28;20077;-61
2023/03/29 07:24:05;;;;;;;9.07;4.40;;;;;9.00;98678.00;;;;5013524;28;20046;-59
2023/03/29 07:26:34;;;;;;;8.82;4.47;;;;;9.30;98666.00;;;;5013737;28;20057;-58
2023/03/29 07:29:01;;;;;;;6.68;5.00;;;;;9.30;98666.00;;;;5013016;28;20092;-57
2023/03/29 07:31:28;;;;;;;6.63;4.30;;;;;9.30;98670.00;;;;5013465;28;20057;-58
2023/03/29 07:34:12;;;;;;;7.07;5.00;;;;;9.30;98673.00;;;;5013551;28;20076;-58
2023/03/29 07:36:39;;;;;;;8.43;4.05;;;;;9.30;98668.00;;;;5019379;28;20050;-59
2023/03/29 07:39:07;;;;;;;9.63;5.88;;;;;9.40;98676.00;;;;5021130;28;20046;-63
2023/03/29 07:41:36;;;;;;;7.75;4.68;;;;;9.60;98673.00;;;;5021602;28;20061;-63
2023/03/29 07:44:10;;;;;;;7.57;4.47;;;;;9.60;98673.00;;;;5037980;28;20061;-59
2023/03/29 07:46:37;;;;;;;7.47;4.32;;;;;9.80;98682.00;;;;5022195;28;20066;-55
2023/03/29 07:49:05;;;;;;;10.43;4.43;;;;;10.00;98688.00;;;;5021541;28;20053;-61
2023/03/29 07:51:32;;;;;;;5.95;3.78;;;;;10.10;98689.00;;;;5022061;28;20042;-57
2023/03/29 07:54:06;;;;;;;6.15;3.67;;;;;10.10;98684.00;;;;5017308;28;20050;-58
2023/03/29 07:56:44;;;;;;;4.80;3.67;;;;;10.20;98680.00;;;;5033196;28;20054;-62
2023/03/29 07:59:27;;;;;;;6.18;4.90;;;;;10.20;98686.00;;;;5015125;28;20168;-59
2023/03/29 08:02:10;;;;;;;4.72;3.45;;;;;10.20;98677.00;;;;5013081;28;20049;-58
2023/03/29 08:04:40;;;;;;;8.02;3.95;;;;;10.30;98680.00;;;;5012983;28;20519;-59
2023/03/29 08:07:18;;;;;;;7.18;3.75;;;;;10.30;98676.00;;;;5014171;28;20057;-58
2023/03/29 08:10:06;;;;;;;6.82;4.38;;;;;10.50;98674.00;;;;5013686;28;20052;-59
2023/03/29 08:12:51;;;;;;;6.05;3.97;;;;;10.60;98676.00;;;;5012970;28;20046;-58
2023/03/29 08:15:21;;;;;;;4.72;3.47;;;;;10.70;98675.00;;;;5012564;28;20050;-57
2023/03/29 08:17:48;;;;;;;6.47;3.90;;;;;10.70;98674.00;;;;5013980;28;20071;-57
2023/03/29 08:20:15;;;;;;;6.13;4.03;;;;;10.80;98671.00;;;;5013443;28;20450;-58
2023/03/29 08:22:47;;;;;;;7.78;4.15;;;;;10.90;98664.00;;;;5012695;28;20404;-57
2023/03/29 08:25:31;;;;;;;7.80;4.38;;;;;11.10;98664.00;;;;5012407;28;20057;-63
2023/03/29 08:27:58;;;;;;;6.43;3.95;;;;;11.30;98661.00;;;;5012301;28;20077;-59
2023/03/29 08:30:35;;;;;;;6.82;3.85;;;;;11.50;98666.00;;;;5011388;28;20489;-59
2023/03/29 08:33:03;;;;;;;10.52;6.82;;;;;11.50;98667.00;;;;5012552;28;20084;-59
2023/03/29 08:35:30;;;;;;;4.28;3.17;;;;;11.70;98668.00;;;;5012675;28;20141;-58
2023/03/29 08:38:26;;;;;;;5.60;2.80;;;;;11.80;98655.00;;;;5000082;28;20052;-61
2023/03/29 08:40:52;;;;;;;2.75;2.40;;;;;12.00;98656.00;;;;5013246;28;20053;-59
2023/03/29 08:43:40;;;;;;;7.28;2.67;;;;;12.20;98656.00;;;;5014189;28;20096;-59
2023/03/29 08:46:35;;;;;;;4.97;2.63;;;;;12.60;98662.00;;;;5014092;28;20057;-59
2023/03/29 08:49:19;;;;;;;6.18;2.53;;;;;12.80;98653.00;;;;5013406;28;20053;-59
2023/03/29 08:51:51;;;;;;;5.22;2.45;;;;;12.90;98660.00;;;;5033376;28;20072;-60
2023/03/29 08:54:30;;;;;;;4.45;2.63;;;;;13.00;98663.00;;;;5015663;28;20050;-60
2023/03/29 08:57:18;;;;;;;6.55;2.63;;;;;13.10;98653.00;;;;5017418;28;20411;-60
2023/03/29 08:59:52;;;;;;;2.65;2.08;;;;;13.30;98641.00;;;;5033069;28;20045;-60
2023/03/29 09:02:26;;;;;;;4.13;2.13;;;;;13.50;98655.00;;;;5015155;28;20088;-59
2023/03/29 09:05:22;;;;;;;4.78;2.88;;;;;13.70;98649.00;;;;5015981;28;20069;-60
2023/03/29 09:08:15;;;;;;;9.93;6.35;;;;;13.70;98651.00;;;;5015420;28;20046;-61
2023/03/29 09:10:47;;;;;;;5.53;3.85;;;;;13.80;98657.00;;;;5014169;28;20057;-61
2023/03/29 09:13:38;;;;;;;4.57;3.45;;;;;13.90;98650.00;;;;5013230;28;20061;-60
2023/03/29 09:16:36;;;;;;;4.90;2.78;;;;;14.00;98665.00;;;;5013016;28;20541;-61
2023/03/29 09:19:15;;;;;;;3.30;2.90;;;;;14.10;98665.00;;;;5014279;28;20115;-61
2023/03/29 09:22:17;;;;;;;6.25;3.40;;;;;14.20;98675.00;;;;5018058;28;20049;-60
2023/03/29 09:24:52;;;;;;;4.45;2.60;;;;;14.30;98666.00;;;;5016981;28;20144;-59
2023/03/29 09:27:31;;;;;;;4.82;2.75;;;;;14.40;98672.00;;;;5016872;28;20050;-59
2023/03/29 09:30:10;;;;;;;3.08;2.45;;;;;14.50;98678.00;;;;5016061;28;20053;-60
2023/03/29 09:32:51;;;;;;;4.55;2.75;;;;;14.60;98667.00;;;;5014886;28;20152;-59
2023/03/29 09:35:29;;;;;;;4.30;2.28;;;;;14.70;98671.00;;;;5014271;28;20104;-60
2023/03/29 09:37:57;;;;;;;4.78;3.13;;;;;14.80;98667.00;;;;5032448;28;20507;-60
2023/03/29 09:40:33;;;;;;;7.95;4.00;;;;;14.90;98661.00;;;;5017038;28;20069;-62
2023/03/29 09:43:12;;;;;;;4.78;3.17;;;;;15.20;98663.00;;;;5014735;28;20499;-60
2023/03/29 09:45:40;;;;;;;8.93;3.73;;;;;15.30;98651.00;;;;5018266;28;20046;-62
2023/03/29 09:48:12;;;;;;;3.97;2.83;;;;;15.30;98669.00;;;;5019474;28;20793;-60
2023/03/29 09:50:43;;;;;;;4.50;2.97;;;;;15.40;98661.00;;;;5013615;28;20041;-60
2023/03/29 09:53:09;;;;;;;3.15;2.20;;;;;15.60;98661.00;;;;5015640;28;20046;-61
2023/03/29 09:55:43;;;;;;;6.40;3.03;;;;;15.70;98651.00;;;;5016138;28;20575;-59
2023/03/29 09:58:51;;;;;;;7.25;3.10;;;;;15.90;98656.00;;;;5007362;28;20046;-61
2023/03/29 10:01:18;;;;;;;5.68;2.03;;;;;16.00;98638.00;;;;5031449;28;20096;-62
2023/03/29 10:03:52;;;;;;;3.30;2.40;;;;;16.10;98641.00;;;;5018109;28;20034;-61
2023/03/29 10:06:23;;;;;;;3.63;2.30;;;;;16.10;98643.00;;;;5012345;28;20038;-61
2023/03/29 10:08:58;;;;;;;5.70;2.50;;;;;16.20;98635.00;;;;5011943;28;20049;-60
2023/03/29 10:11:35;;;;;;;3.60;2.65;;;;;16.30;98626.00;;;;5027499;28;20507;-62
2023/03/29 10:14:05;;;;;;;4.15;2.40;;;;;16.30;98633.00;;;;5012494;28;20309;-59
2023/03/29 10:16:36;;;;;;;6.47;2.15;;;;;16.20;98625.00;;;;5012478;28;20050;-59
2023/03/29 10:19:33;;;;;;;4.32;2.20;;;;;16.50;98630.00;;;;5011706;28;20056;-59
2023/03/29 10:22:06;;;;;;;5.78;2.63;;;;;16.30;98632.00;;;;5006556;28;20058;-59
2023/03/29 10:24:33;;;;;;;5.43;2.20;;;;;16.20;98620.00;;;;5012164;28;20120;-61
2023/03/29 10:27:02;;;;;;;5.50;2.53;;;;;16.40;98612.00;;;;5011979;28;20045;-59
2023/03/29 10:29:35;;;;;;;3.25;2.53;;;;;16.60;98608.00;;;;5011430;28;20057;-58
2023/03/29 10:32:13;;;;;;;4.05;2.13;;;;;16.60;98600.00;;;;5012071;28;20046;-57
2023/03/29 10:34:40;;;;;;;8.23;5.68;;;;;16.80;98606.00;;;;5011920;28;20051;-60
2023/03/29 10:37:08;;;;;;;9.23;4.55;;;;;16.80;98601.00;;;;5011926;28;20579;-58
2023/03/29 10:39:35;;;;;;;5.50;2.90;;;;;16.80;98609.00;;;;5010351;28;20046;-62
2023/03/29 10:42:03;;;;;;;2.78;1.98;;;;;16.80;98602.00;;;;5011760;28;20473;-57
2023/03/29 10:44:36;;;;;;;5.63;4.13;;;;;16.80;98589.00;;;;5010564;28;20050;-60
2023/03/29 10:47:21;;;;;;;4.18;2.65;;;;;16.80;98607.00;;;;5011860;28;20410;-56
2023/03/29 10:49:54;;;;;;;5.50;2.00;;;;;16.70;98614.00;;;;5011349;28;20053;-60
2023/03/29 10:52:23;;;;;;;3.42;2.10;;;;;16.60;98603.00;;;;5012252;28;20467;-59
2023/03/29 10:54:53;;;;;;;2.53;2.30;;;;;16.60;98605.00;;;;5014486;28;20100;-59
2023/03/29 10:57:30;;;;;;;3.38;2.10;;;;;16.60;98606.00;;;;5015415;28;20050;-61
2023/03/29 11:00:03;;;;;;;4.25;2.15;;;;;16.70;98610.00;;;;5015243;28;20042;-58
2023/03/29 11:02:47;;;;;;;4.30;2.53;;;;;16.90;98606.00;;;;5014969;28;20047;-63
2023/03/29 11:05:36;;;;;;;5.60;2.33;;;;;16.90;98601.00;;;;5015280;28;20284;-61
2023/03/29 11:08:41;;;;;;;5.43;2.92;;;;;16.80;98612.00;;;;5017568;28;20042;-63
2023/03/29 11:11:43;;;;;;;3.60;2.13;;;;;17.00;98618.00;;;;5016093;28;20593;-59
2023/03/29 11:14:21;;;;;;;7.00;2.72;;;;;17.10;98624.00;;;;5015304;28;20117;-59
2023/03/29 11:17:00;;;;;;;5.05;2.67;;;;;17.10;98635.00;;;;5015810;28;20561;-62
2023/03/29 11:19:30;;;;;;;5.15;2.20;;;;;17.10;98636.00;;;;5017808;28;20053;-59
2023/03/29 11:22:10;;;;;;;3.33;2.42;;;;;17.20;98638.00;;;;5016703;28;20042;-60
2023/03/29 11:25:18;;;;;;;3.10;2.70;;;;;17.30;98627.00;;;;5015221;28;20042;-63
2023/03/29 11:27:55;;;;;;;5.47;3.20;;;;;17.40;98630.00;;;;5015358;28;20045;-61
2023/03/29 11:30:35;;;;;;;4.55;2.55;;;;;17.50;98631.00;;;;5015899;28;20048;-60
2023/03/29 11:33:24;;;;;;;4.47;2.70;;;;;17.70;98629.00;;;;5022160;28;20046;-62
2023/03/29 11:36:04;;;;;;;3.50;2.50;;;;;17.70;98620.00;;;;5032744;28;20056;-60
2023/03/29 11:38:42;;;;;;;6.05;2.45;;;;;17.80;98611.00;;;;5021973;28;20049;-60
2023/03/29 11:41:27;;;;;;;3.83;2.53;;;;;17.90;98617.00;;;;5000450;28;20128;-62
2023/03/29 11:44:02;;;;;;;2.60;2.30;;;;;17.90;98618.00;;;;5017760;28;20038;-60
2023/03/29 11:46:37;;;;;;;3.42;2.40;;;;;18.00;98609.00;;;;5019182;28;20088;-61
2023/03/29 11:49:11;;;;;;;3.50;2.35;;;;;18.10;98623.00;;;;5016617;28;20054;-60
2023/03/29 11:51:55;;;;;;;6.70;2.75;;;;;18.00;98613.00;;;;4997527;28;20107;-61
2023/03/29 11:54:29;;;;;;;;;;;;;18.00;98608.00;;;;5015287;28;20060;-60
2023/03/29 11:57:27;;;;;;;6.00;2.67;;;;;17.90;98605.00;;;;5014414;28;19948;-62
2023/03/29 12:00:04;;;;;;;4.13;2.47;;;;;17.90;98599.00;;;;5019262;28;20054;-65
2023/03/29 12:02:53;;;;;;;5.55;2.63;;;;;18.00;98598.00;;;;5019517;28;20045;-62
2023/03/29 12:05:29;;;;;;;7.47;3.92;;;;;18.20;98597.00;;;;5021232;28;20050;-60
2023/03/29 12:08:05;;;;;;;3.28;2.50;;;;;18.30;98592.00;;;;5022093;28;20101;-62
2023/03/29 12:11:01;;;;;;;3.40;2.55;;;;;18.40;98606.00;;;;5021518;28;20050;-64
2023/03/29 12:13:37;;;;;;;5.68;3.00;;;;;18.50;98596.00;;;;5016129;28;20069;-61
2023/03/29 12:16:13;;;;;;;5.40;2.50;;;;;18.70;98596.00;;;;5021760;28;20056;-62
2023/03/29 12:18:46;;;;;;;6.28;3.78;;;;;18.80;98596.00;;;;5021838;28;20054;-62
2023/03/29 12:21:18;;;;;;;5.28;3.85;;;;;18.90;98609.00;;;;5019790;28;20041;-63
2023/03/29 12:23:46;;;;;;;4.35;2.83;;;;;18.80;98610.00;;;;5017553;28;20533;-64
2023/03/29 12:26:19;;;;;;;4.50;2.60;;;;;18.70;98606.00;;;;5019650;28;20052;-63
2023/03/29 12:29:04;;;;;;;3.55;2.55;;;;;18.50;98600.00;;;;5019988;28;20050;-63
2023/03/29 12:31:59;;;;;;;4.80;2.45;;;;;18.40;98594.00;;;;5020135;28;20128;-62
2023/03/29 12:35:12;;;;;;;7.47;3.15;;;;;18.40;98585.00;;;;5019216;28;20042;-63
2023/03/29 12:38:20;;;;;;;5.40;2.85;;;;;18.20;98587.00;;;;5021077;28;20042;-63
2023/03/29 12:41:16;;;;;;;5.07;2.65;;;;;18.10;98583.00;;;;5020785;28;20057;-63
2023/03/29 12:44:03;;;;;;;4.15;2.47;;;;;18.10;98592.00;;;;5021657;28;20045;-62
2023/03/29 12:46:45;;;;;;;;;;;;;18.20;98589.00;;;;5021499;28;20081;-62
2023/03/29 12:49:24;;;;;;;6.25;2.95;;;;;18.20;98581.00;;;;5035853;28;19928;-63
2023/03/29 12:51:56;;;;;;;5.82;3.08;;;;;18.30;98578.00;;;;5019863;28;20054;-61
2023/03/29 12:54:27;;;;;;;4.70;3.05;;;;;18.40;98576.00;;;;5021018;28;20046;-63
2023/03/29 12:56:57;;;;;;;6.38;2.58;;;;;18.60;98571.00;;;;5021287;28;20435;-62
2023/03/29 12:59:32;;;;;;;5.60;2.42;;;;;18.70;98566.00;;;;5020162;28;20041;-62
2023/03/29 13:02:21;;;;;;;4.05;2.38;;;;;19.00;98584.00;;;;5020743;28;20084;-62
2023/03/29 13:04:53;;;;;;;3.40;2.47;;;;;19.00;98568.00;;;;5020977;28;20124;-62